If you wish to contribute or participate in the discussions about articles you are invited to join SKYbrary as a registered user

 Actions

Fort Worth

From SKYbrary Wiki

KAFW
Airport
ICAO: KAFW
Summary
Name Fort Worth
Region North America
Territory United States US.gif
Location Fort Worth, Tarrant County, Texas
Serving
Coordinates 32° 59' 36.82" N, 97° 18' 34.86" W
Runways
Designator Length Width Surface ROPS
16L/34R 2926 m9,599.738 ft
46 m150.919 ft
CON yes/yes
16R/34L 2505 m8,218.504 ft
46 m150.919 ft
CON yes/yes


METAR
Observation KAFW 192153Z 07009KT 10SM FEW026 SCT043 OVC060 28/21 A2986 RMK AO2 SLP097 T02780211
Station Fort Worth, Fort Worth Alliance Airport
Date/Time 19 September 2019 21:53:00
Wind direction 70°
Wind speed 09 kts
Lowest cloud amount few clouds
Temperature 27.8°C
Dew point 21.1°C
Humidity 67%
QNH hPa
Weather condition n/a

Fort Worth Alliance Airport

ICAO: KAFW IATA: AFW

Description

Fort Worth Alliance Airport is a city-owned public-use airport located 23 km north of the central business district of Fort Worth, city in Tarrant County, Texas, United States.

Climatology

Maps

Terrain

Loading map...

Airport Layout

Loading map...


Accidents & Serious Incidents at or in vicinity of KAFW

None on SKYbrary